createdAt,value
2023-03-17T00:01:56.858Z,8.06
2023-03-17T00:04:26.286Z,8.10
2023-03-17T00:06:54.494Z,8.08
2023-03-17T00:09:22.672Z,8.12
2023-03-17T00:11:50.361Z,8.13
2023-03-17T00:14:18.125Z,8.12
2023-03-17T00:16:50.026Z,8.03
2023-03-17T00:19:33.338Z,8.00
2023-03-17T00:22:03.280Z,7.97
2023-03-17T00:24:31.458Z,8.03
2023-03-17T00:26:58.893Z,8.03
2023-03-17T00:29:26.942Z,7.99
2023-03-17T00:31:57.073Z,7.93
2023-03-17T00:34:23.945Z,7.88
2023-03-17T00:36:52.454Z,7.82
2023-03-17T00:39:19.899Z,7.77
2023-03-17T00:41:50.359Z,7.80
2023-03-17T00:44:17.512Z,7.80
2023-03-17T00:46:44.749Z,7.78
2023-03-17T00:49:23.477Z,7.75
2023-03-17T00:51:51.445Z,7.69
2023-03-17T00:54:21.385Z,7.67
2023-03-17T00:56:50.939Z,7.64
2023-03-17T00:59:37.262Z,7.61
2023-03-17T01:02:04.366Z,7.66
2023-03-17T01:04:31.260Z,7.74
2023-03-17T01:06:59.351Z,7.72
2023-03-17T01:09:28.425Z,7.75
2023-03-17T01:11:57.665Z,7.78
2023-03-17T01:14:24.857Z,7.68
2023-03-17T01:16:55.474Z,7.69
2023-03-17T01:19:23.035Z,7.74
2023-03-17T01:21:50.250Z,7.77
2023-03-17T01:24:17.066Z,7.81
2023-03-17T01:26:44.593Z,7.74
2023-03-17T01:29:12.224Z,7.71
2023-03-17T01:31:39.369Z,7.77
2023-03-17T01:34:06.351Z,7.71
2023-03-17T01:36:34.327Z,7.66
2023-03-17T01:39:01.589Z,7.67
2023-03-17T01:41:28.407Z,7.65
2023-03-17T01:43:55.220Z,7.64
2023-03-17T01:46:29.188Z,7.67
2023-03-17T01:49:06.857Z,7.66
2023-03-17T01:51:52.669Z,7.67
2023-03-17T01:55:11.559Z,7.69
2023-03-17T01:57:51.170Z,7.64
2023-03-17T02:00:24.115Z,7.60
2023-03-17T02:02:56.615Z,7.56
2023-03-17T02:05:33.452Z,7.53
2023-03-17T02:08:14.547Z,7.56
2023-03-17T02:10:43.432Z,7.54
2023-03-17T02:13:14.189Z,7.48
2023-03-17T02:15:51.759Z,7.45
2023-03-17T02:18:23.644Z,7.46
2023-03-17T02:20:56.819Z,7.46
2023-03-17T02:23:24.765Z,7.41
2023-03-17T02:25:54.119Z,7.41
2023-03-17T02:28:30.128Z,7.47
2023-03-17T02:30:57.906Z,7.43
2023-03-17T02:33:24.807Z,7.42
2023-03-17T02:35:55.102Z,7.45
2023-03-17T02:38:22.222Z,7.50
2023-03-17T02:40:49.262Z,7.54
2023-03-17T02:43:16.754Z,7.56
2023-03-17T02:45:43.617Z,7.56
2023-03-17T02:48:12.050Z,7.61
2023-03-17T02:50:39.029Z,7.60
2023-03-17T02:53:06.729Z,7.56
2023-03-17T02:55:33.790Z,7.57
2023-03-17T02:58:03.137Z,7.60
2023-03-17T03:00:30.318Z,7.63
2023-03-17T03:02:57.336Z,7.66
2023-03-17T03:05:24.824Z,7.65
2023-03-17T03:07:52.304Z,7.63
2023-03-17T03:10:19.394Z,7.61
2023-03-17T03:12:47.365Z,7.56
2023-03-17T03:15:14.633Z,7.54
2023-03-17T03:17:42.039Z,7.61
2023-03-17T03:20:11.459Z,7.63
2023-03-17T03:22:38.969Z,7.64
2023-03-17T03:25:08.699Z,7.68
2023-03-17T03:27:36.075Z,7.65
2023-03-17T03:30:04.377Z,7.63
2023-03-17T03:32:31.552Z,7.69
2023-03-17T03:34:58.506Z,7.74
2023-03-17T03:37:26.016Z,7.77
2023-03-17T03:39:53.008Z,7.78
2023-03-17T03:42:19.811Z,7.74
2023-03-17T03:44:46.635Z,7.74
2023-03-17T03:47:13.460Z,7.70
2023-03-17T03:49:40.292Z,7.71
2023-03-17T03:52:07.811Z,7.74
2023-03-17T03:54:35.172Z,7.79
2023-03-17T03:57:03.782Z,7.70
2023-03-17T03:59:30.748Z,7.72
2023-03-17T04:01:57.624Z,7.70
2023-03-17T04:04:24.485Z,7.68
2023-03-17T04:06:51.321Z,7.69
2023-03-17T04:09:18.229Z,7.65
2023-03-17T04:11:45.029Z,7.66
2023-03-17T04:14:11.885Z,7.64
2023-03-17T04:16:38.667Z,7.59
2023-03-17T04:19:05.775Z,7.49
2023-03-17T04:21:33.192Z,7.46
2023-03-17T04:24:05.219Z,7.43
2023-03-17T04:26:32.587Z,7.40
2023-03-17T04:28:59.421Z,7.38
2023-03-17T04:31:26.401Z,7.32
2023-03-17T04:33:53.480Z,7.29
2023-03-17T04:36:23.187Z,7.27
2023-03-17T04:38:50.015Z,7.26
2023-03-17T04:41:16.977Z,7.26
2023-03-17T04:43:43.765Z,7.26
2023-03-17T04:46:10.997Z,7.27
2023-03-17T04:48:38.045Z,7.24
2023-03-17T04:51:05.355Z,7.25
2023-03-17T04:53:32.592Z,7.22
2023-03-17T04:55:59.472Z,7.22
2023-03-17T04:58:30.808Z,7.20
2023-03-17T05:00:58.790Z,7.20
2023-03-17T05:03:27.771Z,7.18
2023-03-17T05:05:55.578Z,7.13
2023-03-17T05:08:22.598Z,7.11
2023-03-17T05:10:49.598Z,7.10
2023-03-17T05:13:16.867Z,7.04
2023-03-17T05:15:52.862Z,7.02
2023-03-17T05:18:21.689Z,7.01
2023-03-17T05:20:48.470Z,7.03
2023-03-17T05:23:15.324Z,6.99
2023-03-17T05:25:42.515Z,6.92
2023-03-17T05:28:10.204Z,6.88
2023-03-17T05:30:37.842Z,6.87
2023-03-17T05:33:06.070Z,6.89
2023-03-17T05:35:33.115Z,6.91
2023-03-17T05:38:00.055Z,6.90
2023-03-17T05:40:27.163Z,6.91
2023-03-17T05:42:54.030Z,6.92
2023-03-17T05:45:20.837Z,6.92
2023-03-17T05:47:47.675Z,6.90
2023-03-17T05:50:14.960Z,6.92
2023-03-17T05:52:41.928Z,7.03
2023-03-17T05:55:09.534Z,7.07
2023-03-17T05:57:36.673Z,7.06
2023-03-17T06:00:05.282Z,7.03
2023-03-17T06:02:32.665Z,7.00
2023-03-17T06:04:59.683Z,6.94
2023-03-17T06:07:28.392Z,6.96
2023-03-17T06:09:58.169Z,6.99
2023-03-17T06:12:25.831Z,7.02
2023-03-17T06:14:52.957Z,7.03
2023-03-17T06:17:22.160Z,7.01
2023-03-17T06:19:49.528Z,6.99
2023-03-17T06:22:16.848Z,7.02
2023-03-17T06:24:43.978Z,7.04
2023-03-17T06:27:11.072Z,7.06
2023-03-17T06:29:38.135Z,7.04
2023-03-17T06:32:19.194Z,7.01
2023-03-17T06:34:47.452Z,7.03
2023-03-17T06:37:14.659Z,7.14
2023-03-17T06:39:42.267Z,7.21
2023-03-17T06:42:09.309Z,7.21
2023-03-17T06:44:37.170Z,7.26
2023-03-17T06:47:04.912Z,7.30
2023-03-17T06:49:32.529Z,7.36
2023-03-17T06:51:59.828Z,7.47
2023-03-17T06:54:26.977Z,7.56
2023-03-17T06:56:53.873Z,7.62
2023-03-17T06:59:22.781Z,7.66
2023-03-17T07:01:50.389Z,7.68
2023-03-17T07:04:17.348Z,7.76
2023-03-17T07:06:44.913Z,7.83
2023-03-17T07:09:11.969Z,7.96
2023-03-17T07:11:39.190Z,8.07
2023-03-17T07:14:06.753Z,8.19
2023-03-17T07:16:33.982Z,8.30
2023-03-17T07:19:02.095Z,8.40
2023-03-17T07:21:29.271Z,8.48
2023-03-17T07:23:56.316Z,8.57
2023-03-17T07:26:23.223Z,8.67
2023-03-17T07:28:50.175Z,8.85
2023-03-17T07:31:17.146Z,9.02
2023-03-17T07:33:44.000Z,9.17
2023-03-17T07:36:11.068Z,9.29
2023-03-17T07:38:38.323Z,9.38
2023-03-17T07:41:09.727Z,9.38
2023-03-17T07:43:38.058Z,9.41
2023-03-17T07:46:06.555Z,9.35
2023-03-17T07:48:34.334Z,9.34
2023-03-17T07:51:01.507Z,9.38
2023-03-17T07:53:28.409Z,9.46
2023-03-17T07:55:55.232Z,9.48
2023-03-17T07:58:22.129Z,9.49
2023-03-17T08:00:49.083Z,9.49
2023-03-17T08:03:15.875Z,9.53
2023-03-17T08:05:42.925Z,9.55
2023-03-17T08:08:10.691Z,9.62
2023-03-17T08:10:37.542Z,9.63
2023-03-17T08:13:04.702Z,9.73
2023-03-17T08:15:31.527Z,9.75
2023-03-17T08:17:58.400Z,9.83
2023-03-17T08:20:25.311Z,9.88
2023-03-17T08:22:52.119Z,9.94
2023-03-17T08:25:18.906Z,9.94
2023-03-17T08:27:45.726Z,9.97
2023-03-17T08:30:13.586Z,10.01
2023-03-17T08:32:41.167Z,10.03
2023-03-17T08:35:11.776Z,10.10
2023-03-17T08:37:38.614Z,10.12
2023-03-17T08:40:06.162Z,10.27
2023-03-17T08:42:32.950Z,10.36
2023-03-17T08:44:59.874Z,10.43
2023-03-17T08:47:27.407Z,10.52
2023-03-17T08:49:56.294Z,10.64
2023-03-17T08:52:23.230Z,10.74
2023-03-17T08:54:50.591Z,10.78
2023-03-17T08:57:18.062Z,10.83
2023-03-17T08:59:47.508Z,10.91
2023-03-17T09:02:15.905Z,11.01
2023-03-17T09:04:42.903Z,11.09
2023-03-17T09:07:10.424Z,11.13
2023-03-17T09:09:38.028Z,11.17
2023-03-17T09:12:07.396Z,11.31
2023-03-17T09:14:43.474Z,11.51
2023-03-17T09:17:13.800Z,11.60
2023-03-17T09:19:41.558Z,11.65
2023-03-17T09:22:13.497Z,11.76
2023-03-17T09:24:40.446Z,11.93
2023-03-17T09:27:07.569Z,12.04
2023-03-17T09:29:34.788Z,12.13
2023-03-17T09:32:01.657Z,12.23
2023-03-17T09:34:28.495Z,12.35
2023-03-17T09:36:55.519Z,12.42
2023-03-17T09:39:24.116Z,12.43
2023-03-17T09:42:19.267Z,12.45
2023-03-17T09:45:27.026Z,12.48
2023-03-17T09:48:02.991Z,12.61
2023-03-17T09:50:53.447Z,12.75
2023-03-17T09:53:35.860Z,12.83
2023-03-17T09:56:13.227Z,12.94
2023-03-17T09:58:55.257Z,12.99
2023-03-17T10:01:23.165Z,13.02
2023-03-17T10:03:50.959Z,13.04
2023-03-17T10:06:38.822Z,13.06
2023-03-17T10:09:20.619Z,13.12
2023-03-17T10:11:54.837Z,13.12
2023-03-17T10:14:38.583Z,13.18
2023-03-17T10:17:19.201Z,13.17
2023-03-17T10:19:58.194Z,13.15
2023-03-17T10:22:38.408Z,13.12
2023-03-17T10:25:15.432Z,13.07
2023-03-17T10:27:51.594Z,13.10
2023-03-17T10:30:22.385Z,13.10
2023-03-17T10:32:52.426Z,13.14
2023-03-17T10:35:22.110Z,13.22
2023-03-17T10:37:49.286Z,13.22
2023-03-17T10:40:28.684Z,13.26
2023-03-17T10:43:08.687Z,13.43
2023-03-17T10:45:46.352Z,13.63
2023-03-17T10:48:20.102Z,13.89
2023-03-17T10:50:49.373Z,14.09
2023-03-17T10:53:29.410Z,14.30
2023-03-17T10:56:09.874Z,14.48
2023-03-17T10:58:53.554Z,14.73
2023-03-17T11:01:29.722Z,15.21
2023-03-17T11:03:57.710Z,15.73
2023-03-17T11:06:43.921Z,16.14
2023-03-17T11:09:18.484Z,16.34
2023-03-17T11:11:49.914Z,16.46
2023-03-17T11:14:19.699Z,16.61
2023-03-17T11:16:54.452Z,16.71
2023-03-17T11:19:52.329Z,16.79
2023-03-17T11:22:40.438Z,16.99
2023-03-17T11:25:19.938Z,17.30
2023-03-17T11:27:56.719Z,17.69
2023-03-17T11:30:43.668Z,18.06
2023-03-17T11:33:41.674Z,18.20
2023-03-17T11:36:36.232Z,18.22
2023-03-17T11:39:35.281Z,18.20
2023-03-17T11:42:15.522Z,18.39
2023-03-17T11:45:11.703Z,18.47
2023-03-17T11:48:11.713Z,18.60
2023-03-17T11:50:48.498Z,18.89
2023-03-17T11:53:21.726Z,19.07
2023-03-17T11:55:57.781Z,19.29
2023-03-17T11:58:39.460Z,19.71
2023-03-17T12:01:12.134Z,20.03
2023-03-17T12:04:09.640Z,20.17
2023-03-17T12:06:50.732Z,20.12
2023-03-17T12:09:30.791Z,19.98
2023-03-17T12:12:01.380Z,19.95
2023-03-17T12:14:52.425Z,20.03
2023-03-17T12:17:39.334Z,20.12
2023-03-17T12:20:28.140Z,20.29
2023-03-17T12:23:06.641Z,20.51
2023-03-17T12:25:57.758Z,20.73
2023-03-17T12:28:38.811Z,20.70
2023-03-17T12:31:17.653Z,20.44
2023-03-17T12:34:07.821Z,20.33
2023-03-17T12:36:38.123Z,20.37
2023-03-17T12:39:19.005Z,20.48
2023-03-17T12:42:25.409Z,20.12
2023-03-17T12:45:14.953Z,19.80
2023-03-17T12:48:00.061Z,19.47
2023-03-17T12:50:49.149Z,19.10
2023-03-17T12:53:30.113Z,18.99
2023-03-17T12:56:28.772Z,19.01
2023-03-17T12:59:05.847Z,19.09
2023-03-17T13:02:13.040Z,19.08
2023-03-17T13:05:00.843Z,18.98
2023-03-17T13:07:54.776Z,19.00
2023-03-17T13:10:39.853Z,19.02
2023-03-17T13:13:13.044Z,19.00
2023-03-17T13:15:40.398Z,19.11
2023-03-17T13:18:29.668Z,19.19
2023-03-17T13:20:56.680Z,19.24
2023-03-17T13:23:46.296Z,19.33
2023-03-17T13:26:20.140Z,19.43
2023-03-17T13:28:51.022Z,19.52
2023-03-17T13:31:27.194Z,19.77
2023-03-17T13:34:03.028Z,19.96
2023-03-17T13:36:59.054Z,20.15
2023-03-17T13:39:46.119Z,20.26
2023-03-17T13:43:15.379Z,20.33
2023-03-17T13:45:44.815Z,20.19
2023-03-17T13:48:38.059Z,20.14
2023-03-17T13:51:08.583Z,20.05
2023-03-17T13:53:41.290Z,20.09
2023-03-17T13:56:22.420Z,20.20
2023-03-17T13:59:05.974Z,20.43
2023-03-17T14:01:42.169Z,20.71
2023-03-17T14:04:44.746Z,20.93
2023-03-17T14:07:20.391Z,20.91
2023-03-17T14:09:48.511Z,20.93
2023-03-17T14:12:29.589Z,20.86
2023-03-17T14:15:12.133Z,20.80
2023-03-17T14:17:48.894Z,20.81
2023-03-17T14:20:15.814Z,20.59
2023-03-17T14:22:47.389Z,20.45
2023-03-17T14:25:24.089Z,20.38
2023-03-17T14:27:57.872Z,20.34
2023-03-17T14:30:34.776Z,20.41
2023-03-17T14:33:13.931Z,20.49
2023-03-17T14:35:43.556Z,20.34
2023-03-17T14:38:25.385Z,20.14
2023-03-17T14:41:15.511Z,20.03
2023-03-17T14:43:44.486Z,19.95
2023-03-17T14:46:26.196Z,19.83
2023-03-17T14:49:21.316Z,19.62
2023-03-17T14:51:57.286Z,19.55
2023-03-17T14:54:31.477Z,19.52
2023-03-17T14:57:07.597Z,19.47
2023-03-17T14:59:38.874Z,19.47
2023-03-17T15:02:28.529Z,19.47
2023-03-17T15:05:26.429Z,19.46
2023-03-17T15:07:53.946Z,19.38
2023-03-17T15:10:25.939Z,19.22
2023-03-17T15:13:06.319Z,19.08
2023-03-17T15:15:37.891Z,18.95
2023-03-17T15:18:13.098Z,18.84
2023-03-17T15:20:44.320Z,18.87
2023-03-17T15:23:25.130Z,18.88
2023-03-17T15:25:57.276Z,18.90
2023-03-17T15:28:31.585Z,18.88
2023-03-17T15:31:13.524Z,18.88
2023-03-17T15:33:42.469Z,18.84
2023-03-17T15:36:31.212Z,18.81
2023-03-17T15:38:58.955Z,18.78
2023-03-17T15:41:26.147Z,18.76
2023-03-17T15:43:53.699Z,18.69
2023-03-17T15:46:27.780Z,18.66
2023-03-17T15:48:55.161Z,18.64
2023-03-17T15:51:22.683Z,18.59
2023-03-17T15:53:49.542Z,18.64
2023-03-17T15:56:20.471Z,18.72
2023-03-17T15:58:52.460Z,18.76
2023-03-17T16:01:20.886Z,18.78
2023-03-17T16:03:48.996Z,18.84
2023-03-17T16:06:24.194Z,18.80
2023-03-17T16:08:51.694Z,18.75
2023-03-17T16:11:30.121Z,18.70
2023-03-17T16:13:59.662Z,18.60
2023-03-17T16:16:37.339Z,18.45
2023-03-17T16:19:20.216Z,18.31
2023-03-17T16:21:47.745Z,18.17
2023-03-17T16:24:22.791Z,18.04
2023-03-17T16:26:50.505Z,17.97
2023-03-17T16:29:19.841Z,17.90
2023-03-17T16:31:50.173Z,17.85
2023-03-17T16:34:23.414Z,17.74
2023-03-17T16:36:50.937Z,17.64
2023-03-17T16:39:19.552Z,17.60
2023-03-17T16:41:48.662Z,17.56
2023-03-17T16:44:20.976Z,17.55
2023-03-17T16:46:48.893Z,17.48
2023-03-17T16:49:20.932Z,17.48
2023-03-17T16:51:49.471Z,17.42
2023-03-17T16:54:17.283Z,17.36
2023-03-17T16:56:44.918Z,17.28
2023-03-17T16:59:20.803Z,17.23
2023-03-17T17:01:47.848Z,17.23
2023-03-17T17:04:14.703Z,17.20
2023-03-17T17:06:41.447Z,17.16
2023-03-17T17:09:08.355Z,17.15
2023-03-17T17:11:35.343Z,17.10
2023-03-17T17:14:02.296Z,17.05
2023-03-17T17:16:34.405Z,16.92
2023-03-17T17:19:03.717Z,16.88
2023-03-17T17:21:31.995Z,16.82
2023-03-17T17:23:58.941Z,16.77
2023-03-17T17:26:25.840Z,16.77
2023-03-17T17:28:52.656Z,16.70
2023-03-17T17:31:19.826Z,16.68
2023-03-17T17:33:46.685Z,16.64
2023-03-17T17:36:16.999Z,16.58
2023-03-17T17:38:44.037Z,16.50
2023-03-17T17:41:13.068Z,16.44
2023-03-17T17:43:41.080Z,16.35
2023-03-17T17:46:20.357Z,16.27
2023-03-17T17:48:47.796Z,16.21
2023-03-17T17:51:14.902Z,16.17
2023-03-17T17:53:41.791Z,16.13
2023-03-17T17:56:15.051Z,16.12
2023-03-17T17:58:42.663Z,16.10
2023-03-17T18:01:12.994Z,16.07
2023-03-17T18:03:42.716Z,16.01
2023-03-17T18:06:10.359Z,15.95
2023-03-17T18:08:37.265Z,15.89
2023-03-17T18:11:04.242Z,15.83
2023-03-17T18:13:31.244Z,15.81
2023-03-17T18:15:58.509Z,15.77
2023-03-17T18:18:25.351Z,15.75
2023-03-17T18:20:53.828Z,15.72
2023-03-17T18:23:21.600Z,15.71
2023-03-17T18:25:49.331Z,15.72
2023-03-17T18:28:17.188Z,15.67
2023-03-17T18:30:45.153Z,15.61
2023-03-17T18:33:19.980Z,15.54
2023-03-17T18:35:52.166Z,15.48
2023-03-17T18:38:19.157Z,15.42
2023-03-17T18:40:46.413Z,15.37
2023-03-17T18:43:13.474Z,15.32
2023-03-17T18:45:40.484Z,15.25
2023-03-17T18:48:07.366Z,15.24
2023-03-17T18:50:34.323Z,15.19
2023-03-17T18:53:01.292Z,15.13
2023-03-17T18:55:28.170Z,15.09
2023-03-17T18:57:55.050Z,15.02
2023-03-17T19:00:25.202Z,15.01
2023-03-17T19:02:52.912Z,14.98
2023-03-17T19:05:20.574Z,14.94
2023-03-17T19:07:47.526Z,14.91
2023-03-17T19:10:15.383Z,14.88
2023-03-17T19:12:44.466Z,14.87
2023-03-17T19:15:12.844Z,14.84
2023-03-17T19:17:40.297Z,14.83
2023-03-17T19:20:08.719Z,14.79
2023-03-17T19:22:35.753Z,14.77
2023-03-17T19:25:04.344Z,14.76
2023-03-17T19:27:31.376Z,14.76
2023-03-17T19:29:58.373Z,14.75
2023-03-17T19:32:25.357Z,14.73
2023-03-17T19:34:52.456Z,14.71
2023-03-17T19:37:19.359Z,14.68
2023-03-17T19:39:46.224Z,14.65
2023-03-17T19:42:13.340Z,14.65
2023-03-17T19:44:40.656Z,14.59
2023-03-17T19:47:08.388Z,14.57
2023-03-17T19:49:37.418Z,14.60
2023-03-17T19:52:06.544Z,14.57
2023-03-17T19:54:34.313Z,14.57
2023-03-17T19:57:01.255Z,14.56
2023-03-17T19:59:28.112Z,14.52
2023-03-17T20:01:55.610Z,14.53
2023-03-17T20:04:23.207Z,14.51
2023-03-17T20:06:55.375Z,14.49
2023-03-17T20:09:25.408Z,14.43
2023-03-17T20:11:54.547Z,14.43
2023-03-17T20:14:21.692Z,14.43
2023-03-17T20:16:49.298Z,14.41
2023-03-17T20:19:16.496Z,14.42
2023-03-17T20:21:43.862Z,14.38
2023-03-17T20:24:12.940Z,14.40
2023-03-17T20:26:40.930Z,14.43
2023-03-17T20:29:08.638Z,14.43
2023-03-17T20:31:37.505Z,14.42
2023-03-17T20:34:05.055Z,14.40
2023-03-17T20:36:31.978Z,14.39
2023-03-17T20:38:59.039Z,14.39
2023-03-17T20:41:25.910Z,14.37
2023-03-17T20:43:53.123Z,14.34
2023-03-17T20:46:24.185Z,14.35
2023-03-17T20:48:58.360Z,14.32
2023-03-17T20:51:27.014Z,14.30
2023-03-17T20:53:55.012Z,14.29
2023-03-17T20:56:24.178Z,14.27
2023-03-17T20:58:53.243Z,14.27
2023-03-17T21:01:21.718Z,14.23
2023-03-17T21:03:50.300Z,14.23
2023-03-17T21:06:18.329Z,14.20
2023-03-17T21:08:46.215Z,14.19
2023-03-17T21:11:19.692Z,14.20
2023-03-17T21:13:47.135Z,14.18
2023-03-17T21:16:27.741Z,14.16
2023-03-17T21:18:54.775Z,14.14
2023-03-17T21:21:22.826Z,14.13
2023-03-17T21:23:49.785Z,14.11
2023-03-17T21:26:17.351Z,14.07
2023-03-17T21:28:44.544Z,14.06
2023-03-17T21:31:13.344Z,14.06
2023-03-17T21:33:40.354Z,14.05
2023-03-17T21:36:07.788Z,14.02
2023-03-17T21:38:34.983Z,14.02
2023-03-17T21:41:33.358Z,13.97
2023-03-17T21:44:02.240Z,13.98
2023-03-17T21:46:29.776Z,13.96
2023-03-17T21:48:56.970Z,13.96
2023-03-17T21:51:25.148Z,13.95
2023-03-17T21:53:53.045Z,13.97
2023-03-17T21:56:20.804Z,13.94
2023-03-17T21:58:49.005Z,13.96
2023-03-17T22:01:18.626Z,13.93
2023-03-17T22:03:45.465Z,13.93
2023-03-17T22:06:13.924Z,13.91
2023-03-17T22:08:41.173Z,13.89
2023-03-17T22:11:13.456Z,13.86
2023-03-17T22:13:41.421Z,13.83
2023-03-17T22:16:10.502Z,13.81
2023-03-17T22:18:38.213Z,13.82
2023-03-17T22:21:08.190Z,13.82
2023-03-17T22:23:41.108Z,13.82
2023-03-17T22:26:12.565Z,13.82
2023-03-17T22:28:40.753Z,13.80
2023-03-17T22:31:23.818Z,13.77
2023-03-17T22:33:55.356Z,13.72
2023-03-17T22:36:24.465Z,13.66
2023-03-17T22:38:51.637Z,13.61
2023-03-17T22:41:24.420Z,13.59
2023-03-17T22:43:51.974Z,13.55
2023-03-17T22:46:20.803Z,13.52
2023-03-17T22:48:48.704Z,13.51
2023-03-17T22:51:20.979Z,13.48
2023-03-17T22:53:49.280Z,13.41
2023-03-17T22:56:18.242Z,13.36
2023-03-17T22:58:46.824Z,13.34
2023-03-17T23:01:16.751Z,13.36
2023-03-17T23:03:45.204Z,13.34
2023-03-17T23:06:13.248Z,13.28
2023-03-17T23:08:42.764Z,13.25
2023-03-17T23:11:21.183Z,13.23
2023-03-17T23:13:49.265Z,13.19
2023-03-17T23:16:17.151Z,13.18
2023-03-17T23:18:46.811Z,13.16
2023-03-17T23:21:36.732Z,13.16
2023-03-17T23:24:05.788Z,13.10
2023-03-17T23:26:35.074Z,13.06
2023-03-17T23:29:03.380Z,13.05
2023-03-17T23:31:30.306Z,13.06
2023-03-17T23:33:57.157Z,13.06
2023-03-17T23:36:24.309Z,13.05
2023-03-17T23:38:52.265Z,13.02
2023-03-17T23:41:19.399Z,12.99
2023-03-17T23:43:46.821Z,12.98
2023-03-17T23:46:14.753Z,12.95
2023-03-17T23:48:42.953Z,12.90
2023-03-17T23:51:12.684Z,12.89
2023-03-17T23:53:39.858Z,12.85
2023-03-17T23:56:08.435Z,12.84
2023-03-17T23:58:36.197Z,12.83
